createdAt,value
2024-01-04T00:01:24.196Z,21.37
2024-01-04T00:03:51.011Z,19.30
2024-01-04T00:06:18.734Z,17.37
2024-01-04T00:08:45.692Z,15.87
2024-01-04T00:11:12.498Z,16.23
2024-01-04T00:13:40.205Z,14.07
2024-01-04T00:16:13.119Z,20.43
2024-01-04T00:18:40.106Z,18.07
2024-01-04T00:21:07.298Z,19.67
2024-01-04T00:23:36.071Z,19.80
2024-01-04T00:26:03.069Z,18.63
2024-01-04T00:28:30.415Z,19.60
2024-01-04T00:30:57.147Z,23.77
2024-01-04T00:33:24.437Z,29.27
2024-01-04T00:35:51.296Z,22.43
2024-01-04T00:38:18.028Z,22.67
2024-01-04T00:40:45.902Z,21.70
2024-01-04T00:43:12.710Z,21.27
2024-01-04T00:45:39.425Z,22.27
2024-01-04T00:48:06.835Z,24.40
2024-01-04T00:50:33.731Z,19.47
2024-01-04T00:53:09.119Z,16.83
2024-01-04T00:55:37.051Z,18.80
2024-01-04T00:58:05.230Z,15.27
2024-01-04T01:00:32.616Z,18.93
2024-01-04T01:03:00.453Z,19.23
2024-01-04T01:05:27.342Z,18.17
2024-01-04T01:07:54.124Z,19.70
2024-01-04T01:10:20.953Z,20.83
2024-01-04T01:12:47.728Z,19.97
2024-01-04T01:15:14.689Z,16.57
2024-01-04T01:17:41.788Z,14.90
2024-01-04T01:20:09.386Z,16.63
2024-01-04T01:22:36.097Z,16.30
2024-01-04T01:25:02.843Z,16.33
2024-01-04T01:27:29.973Z,14.97
2024-01-04T01:29:56.725Z,14.43
2024-01-04T01:32:23.471Z,16.03
2024-01-04T01:34:50.223Z,22.03
2024-01-04T01:37:17.385Z,23.43
2024-01-04T01:39:44.093Z,17.27
2024-01-04T01:42:10.830Z,17.30
2024-01-04T01:44:37.558Z,17.67
2024-01-04T01:47:04.535Z,18.47
2024-01-04T01:49:31.755Z,18.00
2024-01-04T01:51:59.384Z,16.37
2024-01-04T01:54:26.463Z,19.87
2024-01-04T01:56:53.391Z,17.07
2024-01-04T01:59:27.162Z,18.20
2024-01-04T02:01:54.903Z,20.08
2024-01-04T02:04:22.247Z,18.20
2024-01-04T02:06:49.159Z,18.47
2024-01-04T02:09:16.574Z,17.17
2024-01-04T02:11:45.744Z,16.10
2024-01-04T02:14:12.628Z,16.20
2024-01-04T02:16:39.386Z,15.60
2024-01-04T02:19:12.740Z,16.27
2024-01-04T02:21:39.767Z,15.47
2024-01-04T02:24:07.263Z,19.63
2024-01-04T02:26:34.241Z,22.03
2024-01-04T02:29:01.140Z,19.20
2024-01-04T02:31:27.891Z,16.90
2024-01-04T02:33:55.121Z,18.30
2024-01-04T02:36:22.123Z,18.10
2024-01-04T02:38:48.892Z,18.70
2024-01-04T02:41:15.644Z,18.83
2024-01-04T02:43:42.356Z,21.00
2024-01-04T02:46:09.077Z,21.00
2024-01-04T02:48:36.142Z,18.30
2024-01-04T02:51:03.152Z,20.63
2024-01-04T02:53:30.122Z,20.83
2024-01-04T02:55:57.077Z,20.47
2024-01-04T02:58:23.784Z,17.63
2024-01-04T03:00:50.929Z,18.87
2024-01-04T03:03:17.795Z,14.57
2024-01-04T03:05:45.172Z,8.93
2024-01-04T03:08:11.974Z,8.57
2024-01-04T03:10:38.686Z,9.37
2024-01-04T03:13:05.506Z,8.47
2024-01-04T03:15:32.710Z,8.97
2024-01-04T03:17:59.808Z,7.60
2024-01-04T03:20:26.667Z,10.80
2024-01-04T03:22:53.467Z,8.50
2024-01-04T03:25:21.133Z,10.03
2024-01-04T03:27:47.825Z,9.93
2024-01-04T03:30:14.772Z,9.23
2024-01-04T03:32:42.734Z,10.40
2024-01-04T03:35:09.930Z,9.10
2024-01-04T03:37:36.633Z,11.37
2024-01-04T03:40:03.675Z,10.17
2024-01-04T03:42:30.359Z,9.10
2024-01-04T03:44:57.161Z,7.43
2024-01-04T03:47:25.298Z,7.13
2024-01-04T03:49:52.039Z,8.53
2024-01-04T03:52:18.785Z,10.97
2024-01-04T03:54:46.614Z,11.97
2024-01-04T03:57:13.438Z,10.13
2024-01-04T03:59:40.320Z,10.53
2024-01-04T04:02:08.651Z,11.20
2024-01-04T04:04:35.413Z,10.17
2024-01-04T04:07:02.662Z,11.63
2024-01-04T04:09:29.429Z,9.93
2024-01-04T04:11:56.801Z,9.00
2024-01-04T04:14:23.567Z,8.77
2024-01-04T04:16:50.541Z,10.70
2024-01-04T04:19:17.340Z,11.73
2024-01-04T04:21:44.188Z,12.70
2024-01-04T04:24:10.964Z,15.13
2024-01-04T04:26:37.793Z,16.10
2024-01-04T04:29:04.629Z,19.73
2024-01-04T04:31:31.353Z,19.67
2024-01-04T04:33:58.172Z,20.63
2024-01-04T04:36:24.969Z,18.37
2024-01-04T04:38:51.757Z,22.67
2024-01-04T04:41:18.629Z,19.40
2024-01-04T04:43:45.442Z,22.77
2024-01-04T04:46:13.509Z,15.70
2024-01-04T04:48:40.920Z,17.80
2024-01-04T04:51:07.917Z,21.30
2024-01-04T04:53:34.699Z,19.37
2024-01-04T04:56:01.881Z,19.40
2024-01-04T04:58:33.064Z,19.23
2024-01-04T05:01:00.353Z,24.40
2024-01-04T05:03:27.220Z,21.30
2024-01-04T05:05:54.638Z,17.03
2024-01-04T05:08:21.423Z,18.63
2024-01-04T05:10:48.157Z,20.60
2024-01-04T05:13:16.581Z,25.77
2024-01-04T05:15:44.561Z,23.97
2024-01-04T05:18:12.045Z,24.30
2024-01-04T05:20:39.015Z,25.60
2024-01-04T05:23:06.282Z,25.13
2024-01-04T05:25:33.029Z,23.23
2024-01-04T05:28:00.256Z,23.93
2024-01-04T05:30:27.262Z,22.13
2024-01-04T05:32:54.219Z,28.33
2024-01-04T05:35:21.593Z,26.67
2024-01-04T05:37:48.782Z,32.93
2024-01-04T05:40:15.930Z,32.50
2024-01-04T05:42:43.825Z,32.80
2024-01-04T05:45:10.845Z,35.87
2024-01-04T05:47:38.545Z,35.10
2024-01-04T05:50:06.307Z,42.83
2024-01-04T05:52:33.020Z,35.97
2024-01-04T05:55:00.842Z,55.90
2024-01-04T05:57:29.184Z,55.50
2024-01-04T05:59:56.056Z,50.60
2024-01-04T06:02:23.682Z,43.77
2024-01-04T06:04:50.450Z,41.07
2024-01-04T06:07:17.377Z,39.60
2024-01-04T06:09:44.115Z,41.53
2024-01-04T06:12:10.968Z,50.40
2024-01-04T06:14:38.109Z,68.13
2024-01-04T06:17:04.926Z,66.53
2024-01-04T06:19:32.469Z,62.90
2024-01-04T06:21:59.325Z,72.90
2024-01-04T06:24:26.183Z,65.53
2024-01-04T06:26:53.564Z,54.20
2024-01-04T06:29:20.495Z,53.97
2024-01-04T06:31:47.277Z,47.20
2024-01-04T06:34:14.259Z,50.30
2024-01-04T06:36:41.152Z,51.07
2024-01-04T06:39:09.371Z,42.40
2024-01-04T06:41:37.328Z,36.60
2024-01-04T06:44:04.828Z,38.40
2024-01-04T06:46:31.518Z,63.40
2024-01-04T06:48:58.525Z,54.17
2024-01-04T06:51:26.291Z,55.60
2024-01-04T06:53:53.230Z,58.30
2024-01-04T06:56:20.887Z,52.27
2024-01-04T06:58:47.687Z,45.10
2024-01-04T07:01:14.428Z,51.57
2024-01-04T07:03:41.842Z,69.30
2024-01-04T07:06:09.183Z,49.58
2024-01-04T07:08:35.941Z,55.22
2024-01-04T07:11:08.883Z,58.38
2024-01-04T07:13:35.697Z,57.03
2024-01-04T07:16:06.079Z,54.40
2024-01-04T07:18:33.607Z,49.20
2024-01-04T07:21:00.884Z,46.88
2024-01-04T07:23:27.636Z,41.63
2024-01-04T07:25:55.784Z,50.00
2024-01-04T07:28:22.478Z,37.08
2024-01-04T07:30:50.106Z,33.95
2024-01-04T07:33:17.063Z,41.70
2024-01-04T07:35:44.020Z,39.22
2024-01-04T07:38:10.785Z,35.20
2024-01-04T07:40:37.785Z,33.50
2024-01-04T07:43:04.721Z,30.80
2024-01-04T07:45:31.630Z,59.15
2024-01-04T07:47:58.566Z,37.60
2024-01-04T07:50:25.441Z,41.63
2024-01-04T07:52:52.250Z,30.02
2024-01-04T07:55:21.770Z,29.48
2024-01-04T07:57:48.533Z,24.17
2024-01-04T08:00:15.754Z,22.92
2024-01-04T08:02:42.575Z,26.98
2024-01-04T08:05:12.242Z,28.75
2024-01-04T08:07:39.023Z,28.10
2024-01-04T08:10:06.464Z,28.65
2024-01-04T08:12:33.217Z,27.80
2024-01-04T08:14:59.965Z,29.33
2024-01-04T08:17:26.848Z,31.30
2024-01-04T08:19:53.751Z,23.45
2024-01-04T08:22:20.752Z,29.33
2024-01-04T08:24:47.473Z,26.55
2024-01-04T08:27:14.188Z,33.05
2024-01-04T08:29:41.297Z,27.35
2024-01-04T08:32:10.054Z,26.20
2024-01-04T08:34:36.781Z,29.90
2024-01-04T08:37:03.555Z,31.77
2024-01-04T08:39:31.474Z,33.25
2024-01-04T08:41:58.221Z,40.10
2024-01-04T08:44:25.120Z,36.20
2024-01-04T08:46:51.836Z,41.35
2024-01-04T08:49:19.106Z,38.15
2024-01-04T08:51:46.318Z,34.20
2024-01-04T08:54:13.273Z,39.85
2024-01-04T08:56:43.492Z,31.17
2024-01-04T08:59:10.224Z,29.85
2024-01-04T09:01:36.989Z,24.63
2024-01-04T09:04:03.915Z,25.13
2024-01-04T09:06:32.808Z,24.05
2024-01-04T09:09:01.074Z,21.17
2024-01-04T09:11:29.538Z,23.40
2024-01-04T09:13:56.335Z,23.67
2024-01-04T09:16:24.146Z,24.65
2024-01-04T09:18:51.028Z,22.73
2024-01-04T09:21:17.942Z,15.20
2024-01-04T09:23:46.230Z,15.90
2024-01-04T09:26:13.106Z,18.00
2024-01-04T09:28:39.856Z,12.60
2024-01-04T09:31:08.184Z,6.20
2024-01-04T09:33:37.245Z,8.70
2024-01-04T09:36:04.911Z,7.32
2024-01-04T09:38:33.769Z,8.15
2024-01-04T09:41:13.656Z,12.77
2024-01-04T09:43:42.357Z,12.05
2024-01-04T09:46:14.264Z,12.85
2024-01-04T09:48:49.497Z,22.35
2024-01-04T09:51:18.007Z,12.20
2024-01-04T09:53:44.731Z,13.90
2024-01-04T09:56:15.607Z,16.00
2024-01-04T09:58:42.333Z,15.75
2024-01-04T10:01:11.262Z,7.13
2024-01-04T10:03:43.507Z,15.00
2024-01-04T10:06:12.748Z,14.00
2024-01-04T10:08:45.740Z,9.10
2024-01-04T10:11:22.693Z,2.60
2024-01-04T10:13:50.499Z,1.95
2024-01-04T10:16:18.355Z,0.80
2024-01-04T10:18:45.602Z,1.80
2024-01-04T10:21:12.836Z,1.13
2024-01-04T10:23:39.574Z,1.20
2024-01-04T10:26:08.632Z,1.23
2024-01-04T10:28:40.651Z,4.55
2024-01-04T10:31:12.655Z,2.03
2024-01-04T10:33:41.926Z,1.63
2024-01-04T10:36:10.584Z,1.38
2024-01-04T10:38:38.135Z,1.58
2024-01-04T10:41:05.762Z,1.52
2024-01-04T10:43:34.401Z,2.45
2024-01-04T10:46:09.609Z,2.35
2024-01-04T10:48:39.684Z,1.30
2024-01-04T10:51:10.924Z,1.40
2024-01-04T10:53:39.194Z,1.40
2024-01-04T10:56:06.868Z,1.00
2024-01-04T10:58:43.742Z,1.13
2024-01-04T11:01:11.077Z,1.80
2024-01-04T11:03:39.210Z,1.08
2024-01-04T11:06:06.407Z,1.00
2024-01-04T11:08:35.276Z,0.65
2024-01-04T11:11:05.221Z,0.90
2024-01-04T11:13:32.064Z,0.95
2024-01-04T11:16:03.225Z,0.90
2024-01-04T11:18:41.875Z,1.20
2024-01-04T11:21:21.010Z,0.60
2024-01-04T11:24:04.592Z,0.90
2024-01-04T11:26:53.074Z,1.52
2024-01-04T11:29:21.042Z,0.70
2024-01-04T11:31:49.811Z,0.95
2024-01-04T11:34:17.727Z,0.95
2024-01-04T11:36:44.725Z,0.98
2024-01-04T11:39:12.004Z,0.73
2024-01-04T11:41:39.152Z,0.63
2024-01-04T11:44:17.016Z,0.85
2024-01-04T11:46:44.539Z,1.13
2024-01-04T11:49:15.830Z,1.60
2024-01-04T11:51:50.692Z,0.95
2024-01-04T11:54:22.362Z,0.95
2024-01-04T11:56:49.682Z,0.90
2024-01-04T11:59:23.025Z,1.00
2024-01-04T12:01:51.114Z,1.17
2024-01-04T12:04:18.809Z,1.27
2024-01-04T12:06:49.626Z,1.40
2024-01-04T12:09:18.516Z,2.17
2024-01-04T12:11:58.078Z,1.08
2024-01-04T12:14:27.343Z,1.98
2024-01-04T12:16:54.208Z,1.77
2024-01-04T12:19:21.166Z,2.88
2024-01-04T12:21:48.304Z,1.05
2024-01-04T12:24:15.722Z,1.70
2024-01-04T12:26:43.057Z,0.93
2024-01-04T12:29:10.142Z,1.30
2024-01-04T12:31:37.356Z,1.90
2024-01-04T12:34:04.432Z,2.38
2024-01-04T12:36:32.316Z,3.78
2024-01-04T12:39:10.811Z,2.30
2024-01-04T12:41:43.119Z,1.83
2024-01-04T12:44:09.848Z,3.33
2024-01-04T12:46:37.106Z,3.58
2024-01-04T12:49:08.890Z,2.92
2024-01-04T12:51:39.856Z,2.00
2024-01-04T12:54:07.293Z,1.65
2024-01-04T12:56:35.550Z,2.13
2024-01-04T12:59:04.565Z,2.10
2024-01-04T13:01:32.370Z,1.20
2024-01-04T13:04:00.537Z,1.60
2024-01-04T13:06:29.026Z,2.17
2024-01-04T13:08:56.288Z,2.45
2024-01-04T13:11:23.942Z,1.63
2024-01-04T13:13:51.792Z,1.63
2024-01-04T13:16:18.680Z,1.10
2024-01-04T13:18:46.056Z,1.88
2024-01-04T13:21:13.111Z,1.73
2024-01-04T13:23:41.636Z,1.92
2024-01-04T13:26:09.926Z,1.80
2024-01-04T13:28:38.152Z,1.25
2024-01-04T13:31:05.361Z,0.93
2024-01-04T13:33:32.498Z,1.23
2024-01-04T13:36:00.643Z,1.65
2024-01-04T13:38:28.268Z,3.00
2024-01-04T13:40:57.047Z,2.63
2024-01-04T13:43:24.510Z,2.40
2024-01-04T13:45:55.358Z,1.95
2024-01-04T13:48:22.620Z,1.38
2024-01-04T13:50:49.724Z,1.70
2024-01-04T13:53:17.195Z,1.75
2024-01-04T13:55:43.896Z,1.30
2024-01-04T13:58:11.146Z,1.13
2024-01-04T14:00:38.468Z,1.27
2024-01-04T14:03:05.558Z,1.42
2024-01-04T14:05:36.201Z,0.80
2024-01-04T14:08:05.371Z,0.88
2024-01-04T14:10:32.865Z,1.77
2024-01-04T14:12:59.571Z,1.58
2024-01-04T14:15:26.606Z,1.27
2024-01-04T14:17:55.434Z,2.10
2024-01-04T14:20:25.157Z,2.08
2024-01-04T14:22:53.326Z,1.60
2024-01-04T14:25:22.168Z,1.20
2024-01-04T14:27:49.578Z,1.30
2024-01-04T14:30:16.792Z,1.75
2024-01-04T14:32:43.939Z,1.50
2024-01-04T14:35:12.113Z,2.60
2024-01-04T14:37:39.962Z,1.70
2024-01-04T14:40:08.518Z,2.70
2024-01-04T14:42:35.747Z,2.42
2024-01-04T14:45:02.677Z,1.88
2024-01-04T14:47:29.609Z,1.92
2024-01-04T14:49:56.564Z,2.70
2024-01-04T14:52:25.438Z,2.45
2024-01-04T14:54:53.516Z,2.80
2024-01-04T14:57:20.844Z,3.83
2024-01-04T14:59:47.825Z,2.22
2024-01-04T15:02:14.709Z,3.05
2024-01-04T15:04:41.443Z,7.70
2024-01-04T15:07:09.549Z,8.98
2024-01-04T15:09:37.330Z,6.05
2024-01-04T15:12:04.551Z,5.95
2024-01-04T15:14:32.115Z,1.52
2024-01-04T15:17:00.861Z,2.70
2024-01-04T15:19:30.013Z,2.42
2024-01-04T15:21:56.823Z,7.63
2024-01-04T15:24:27.428Z,10.82
2024-01-04T15:26:54.445Z,4.35
2024-01-04T15:29:21.445Z,1.90
2024-01-04T15:31:48.992Z,3.08
2024-01-04T15:34:15.760Z,2.22
2024-01-04T15:36:42.616Z,5.65
2024-01-04T15:39:09.561Z,5.28
2024-01-04T15:41:37.592Z,4.47
2024-01-04T15:44:05.064Z,10.20
2024-01-04T15:46:31.769Z,13.10
2024-01-04T15:49:01.296Z,12.35
2024-01-04T15:51:28.481Z,16.15
2024-01-04T15:53:58.118Z,14.35
2024-01-04T15:56:27.956Z,13.95
2024-01-04T15:58:57.640Z,19.50
2024-01-04T16:01:28.692Z,24.67
2024-01-04T16:03:55.920Z,18.48
2024-01-04T16:06:24.153Z,12.00
2024-01-04T16:08:51.341Z,6.18
2024-01-04T16:11:18.183Z,3.90
2024-01-04T16:13:47.212Z,4.68
2024-01-04T16:16:13.970Z,3.78
2024-01-04T16:18:40.830Z,4.38
2024-01-04T16:21:13.757Z,9.73
2024-01-04T16:23:41.138Z,5.60
2024-01-04T16:26:18.081Z,6.22
2024-01-04T16:28:46.003Z,13.02
2024-01-04T16:31:12.781Z,25.52
2024-01-04T16:33:39.644Z,23.98
2024-01-04T16:36:12.697Z,23.60
2024-01-04T16:38:40.834Z,26.85
2024-01-04T16:41:12.082Z,37.75
2024-01-04T16:43:40.533Z,31.80
2024-01-04T16:46:08.501Z,26.73
2024-01-04T16:48:35.776Z,28.13
2024-01-04T16:51:02.738Z,26.95
2024-01-04T16:53:30.718Z,30.83
2024-01-04T16:55:57.428Z,32.80
2024-01-04T16:58:24.278Z,37.83
2024-01-04T17:00:52.623Z,34.25
2024-01-04T17:03:19.411Z,30.70
2024-01-04T17:05:50.040Z,41.92
2024-01-04T17:08:17.439Z,38.97
2024-01-04T17:10:44.207Z,38.33
2024-01-04T17:13:12.618Z,42.47
2024-01-04T17:15:39.355Z,37.63
2024-01-04T17:18:08.522Z,46.15
2024-01-04T17:20:35.407Z,38.80
2024-01-04T17:23:03.177Z,39.35
2024-01-04T17:25:29.885Z,37.05
2024-01-04T17:27:56.562Z,33.72
2024-01-04T17:30:25.076Z,32.70
2024-01-04T17:32:54.412Z,35.25
2024-01-04T17:35:21.538Z,35.65
2024-01-04T17:37:48.828Z,73.10
2024-01-04T17:40:15.880Z,53.13
2024-01-04T17:42:42.700Z,48.28
2024-01-04T17:45:13.881Z,38.80
2024-01-04T17:47:46.073Z,47.22
2024-01-04T17:50:15.757Z,100.40
2024-01-04T17:52:42.468Z,43.05
2024-01-04T17:55:11.530Z,39.60
2024-01-04T17:57:38.326Z,35.17
2024-01-04T18:00:05.760Z,35.08
2024-01-04T18:02:32.518Z,34.65
2024-01-04T18:04:59.366Z,39.85
2024-01-04T18:07:26.154Z,38.00
2024-01-04T18:09:52.902Z,44.55
2024-01-04T18:12:20.634Z,43.25
2024-01-04T18:14:47.532Z,41.95
2024-01-04T18:17:16.730Z,45.90
2024-01-04T18:19:45.992Z,42.78
2024-01-04T18:22:12.737Z,50.70
2024-01-04T18:24:42.514Z,48.72
2024-01-04T18:27:10.371Z,56.55
2024-01-04T18:29:38.569Z,61.38
2024-01-04T18:32:06.054Z,56.63
2024-01-04T18:34:32.985Z,56.05
2024-01-04T18:36:59.846Z,61.03
2024-01-04T18:39:26.735Z,47.17
2024-01-04T18:41:55.040Z,47.80
2024-01-04T18:44:21.792Z,51.28
2024-01-04T18:46:54.004Z,43.53
2024-01-04T18:49:25.300Z,58.35
2024-01-04T18:51:54.947Z,54.55
2024-01-04T18:54:21.684Z,57.72
2024-01-04T18:56:48.449Z,60.58
2024-01-04T18:59:18.952Z,44.63
2024-01-04T19:01:46.141Z,48.67
2024-01-04T19:04:12.886Z,45.83
2024-01-04T19:06:39.736Z,45.78
2024-01-04T19:09:06.628Z,30.70
2024-01-04T19:11:34.064Z,30.15
2024-01-04T19:14:02.341Z,36.92
2024-01-04T19:16:29.023Z,41.40
2024-01-04T19:18:57.492Z,40.92
2024-01-04T19:21:26.817Z,35.17
2024-01-04T19:23:53.656Z,38.95
2024-01-04T19:26:22.209Z,38.10
2024-01-04T19:28:48.886Z,35.22
2024-01-04T19:31:16.454Z,36.35
2024-01-04T19:33:43.353Z,33.92
2024-01-04T19:36:10.520Z,35.05
2024-01-04T19:38:37.629Z,28.08
2024-01-04T19:41:04.624Z,32.45
2024-01-04T19:43:32.380Z,37.03
2024-01-04T19:46:06.564Z,36.13
2024-01-04T19:48:37.410Z,37.40
2024-01-04T19:51:05.957Z,43.28
2024-01-04T19:53:32.931Z,38.80
2024-01-04T19:56:01.707Z,43.25
2024-01-04T19:58:30.733Z,41.20
2024-01-04T20:00:58.470Z,39.90
2024-01-04T20:03:25.388Z,30.05
2024-01-04T20:05:53.374Z,31.05
2024-01-04T20:08:20.154Z,30.20
2024-01-04T20:10:46.822Z,31.23
2024-01-04T20:13:14.058Z,34.67
2024-01-04T20:15:42.146Z,37.28
2024-01-04T20:18:12.532Z,27.98
2024-01-04T20:20:39.279Z,37.25
2024-01-04T20:23:06.324Z,30.00
2024-01-04T20:25:34.624Z,32.67
2024-01-04T20:28:01.439Z,38.92
2024-01-04T20:30:28.689Z,38.90
2024-01-04T20:32:55.491Z,31.50
2024-01-04T20:35:24.699Z,31.00
2024-01-04T20:37:51.859Z,32.78
2024-01-04T20:40:19.209Z,44.53
2024-01-04T20:42:48.018Z,33.70
2024-01-04T20:45:15.864Z,34.08
2024-01-04T20:47:45.172Z,41.03
2024-01-04T20:50:12.160Z,42.30
2024-01-04T20:52:38.868Z,40.58
2024-01-04T20:55:07.280Z,41.22
2024-01-04T20:57:34.734Z,39.40
2024-01-04T21:00:01.711Z,54.78
2024-01-04T21:02:28.430Z,52.00
2024-01-04T21:04:56.246Z,48.35
2024-01-04T21:07:22.943Z,46.40
2024-01-04T21:09:49.658Z,43.33
2024-01-04T21:12:16.943Z,37.20
2024-01-04T21:14:46.294Z,35.90
2024-01-04T21:17:13.155Z,37.72
2024-01-04T21:19:40.253Z,36.88
2024-01-04T21:22:07.208Z,33.95
2024-01-04T21:24:34.008Z,36.20
2024-01-04T21:27:00.831Z,44.60
2024-01-04T21:29:27.573Z,40.97
2024-01-04T21:31:54.296Z,40.78
2024-01-04T21:34:21.119Z,44.45
2024-01-04T21:36:48.182Z,42.33
2024-01-04T21:39:19.482Z,42.33
2024-01-04T21:41:46.460Z,45.65
2024-01-04T21:44:13.344Z,43.15
2024-01-04T21:46:41.531Z,43.63
2024-01-04T21:49:08.419Z,43.53
2024-01-04T21:51:35.289Z,58.63
2024-01-04T21:54:04.467Z,53.13
2024-01-04T21:56:31.466Z,50.92
2024-01-04T21:58:58.225Z,45.80
2024-01-04T22:01:26.348Z,40.20
2024-01-04T22:03:54.415Z,37.53
2024-01-04T22:06:22.786Z,33.73
2024-01-04T22:08:49.898Z,40.23
2024-01-04T22:11:17.808Z,38.90
2024-01-04T22:13:45.041Z,34.47
2024-01-04T22:16:11.768Z,34.17
2024-01-04T22:18:38.642Z,33.33
2024-01-04T22:21:05.543Z,32.60
2024-01-04T22:23:32.373Z,33.93
2024-01-04T22:25:59.072Z,35.00
2024-01-04T22:28:26.001Z,33.10
2024-01-04T22:30:54.141Z,31.27
2024-01-04T22:33:21.077Z,31.48
2024-01-04T22:35:49.818Z,31.30
2024-01-04T22:38:16.844Z,35.97
2024-01-04T22:40:43.619Z,36.17
2024-01-04T22:43:10.382Z,36.10
2024-01-04T22:45:38.469Z,28.37
2024-01-04T22:48:07.343Z,29.20
2024-01-04T22:50:34.376Z,30.93
2024-01-04T22:53:01.095Z,27.95
2024-01-04T22:55:27.829Z,13.47
2024-01-04T22:57:54.581Z,18.50
2024-01-04T23:00:22.720Z,17.50
2024-01-04T23:02:50.138Z,12.90
2024-01-04T23:05:16.958Z,10.53
2024-01-04T23:07:43.732Z,10.67
2024-01-04T23:10:11.524Z,18.07
2024-01-04T23:12:38.401Z,14.57
2024-01-04T23:15:05.821Z,12.00
2024-01-04T23:17:32.605Z,12.07
2024-01-04T23:19:59.590Z,13.63
2024-01-04T23:22:27.239Z,14.10
2024-01-04T23:24:54.639Z,13.50
2024-01-04T23:27:21.968Z,8.23
2024-01-04T23:29:48.720Z,13.60
2024-01-04T23:32:15.467Z,9.67
2024-01-04T23:34:42.378Z,9.53
2024-01-04T23:37:09.874Z,19.03
2024-01-04T23:39:36.608Z,13.57
2024-01-04T23:42:03.818Z,17.43
2024-01-04T23:44:30.958Z,23.17
2024-01-04T23:46:57.700Z,22.47
2024-01-04T23:49:24.538Z,24.87
2024-01-04T23:51:51.499Z,25.00
2024-01-04T23:54:18.311Z,20.20
2024-01-04T23:56:45.334Z,20.07
2024-01-04T23:59:13.578Z,23.57
